createdAt,value
2018-09-17T00:00:42.441Z,17.30
2018-09-17T00:03:10.831Z,17.30
2018-09-17T00:05:39.255Z,17.20
2018-09-17T00:08:08.062Z,17.20
2018-09-17T00:10:36.594Z,17.10
2018-09-17T00:13:05.355Z,17.10
2018-09-17T00:15:33.806Z,17.10
2018-09-17T00:18:02.193Z,17.00
2018-09-17T00:20:31.061Z,17.00
2018-09-17T00:22:59.542Z,16.90
2018-09-17T00:25:27.947Z,16.90
2018-09-17T00:27:56.401Z,16.80
2018-09-17T00:30:24.745Z,16.80
2018-09-17T00:32:53.208Z,16.80
2018-09-17T00:35:22.223Z,16.80
2018-09-17T00:37:50.605Z,16.80
2018-09-17T00:40:19.254Z,16.70
2018-09-17T00:42:47.682Z,16.70
2018-09-17T00:45:16.294Z,16.70
2018-09-17T00:47:44.782Z,16.70
2018-09-17T00:50:13.569Z,16.70
2018-09-17T00:52:41.988Z,16.70
2018-09-17T00:55:10.503Z,16.60
2018-09-17T00:57:38.891Z,16.60
2018-09-17T01:00:07.986Z,16.60
2018-09-17T01:02:36.339Z,16.60
2018-09-17T01:05:04.926Z,16.60
2018-09-17T01:07:33.263Z,16.50
2018-09-17T01:10:01.650Z,16.50
2018-09-17T01:12:30.059Z,16.50
2018-09-17T01:14:58.677Z,16.40
2018-09-17T01:17:27.206Z,16.30
2018-09-17T01:19:55.604Z,16.30
2018-09-17T01:22:23.996Z,16.30
2018-09-17T01:24:52.517Z,16.20
2018-09-17T01:27:20.891Z,16.20
2018-09-17T01:29:49.271Z,16.20
2018-09-17T01:32:17.643Z,16.20
2018-09-17T01:34:46.047Z,16.10
2018-09-17T01:37:14.417Z,16.10
2018-09-17T01:39:43.368Z,16.10
2018-09-17T01:42:11.738Z,16.10
2018-09-17T01:44:40.216Z,16.00
2018-09-17T01:47:08.628Z,15.90
2018-09-17T01:49:37.176Z,15.90
2018-09-17T01:52:05.631Z,15.90
2018-09-17T01:54:34.036Z,15.80
2018-09-17T01:57:02.413Z,15.80
2018-09-17T01:59:31.208Z,15.80
2018-09-17T02:01:59.819Z,15.80
2018-09-17T02:04:28.203Z,15.70
2018-09-17T02:06:56.642Z,15.70
2018-09-17T02:09:25.926Z,15.70
2018-09-17T02:11:54.474Z,15.70
2018-09-17T02:14:22.931Z,15.60
2018-09-17T02:16:51.411Z,15.60
2018-09-17T02:19:20.309Z,15.60
2018-09-17T02:21:48.715Z,15.50
2018-09-17T02:24:17.418Z,15.50
2018-09-17T02:26:45.802Z,15.50
2018-09-17T02:29:14.313Z,15.40
2018-09-17T02:31:43.469Z,15.40
2018-09-17T02:34:11.890Z,15.40
2018-09-17T02:36:40.343Z,15.50
2018-09-17T02:39:09.042Z,15.50
2018-09-17T02:41:39.299Z,15.50
2018-09-17T02:44:07.796Z,15.50
2018-09-17T02:46:36.575Z,15.50
2018-09-17T02:49:05.159Z,15.50
2018-09-17T02:51:33.647Z,15.50
2018-09-17T02:54:02.208Z,15.50
2018-09-17T02:56:31.118Z,15.50
2018-09-17T02:58:59.489Z,15.50
2018-09-17T03:01:27.846Z,15.50
2018-09-17T03:03:57.324Z,15.40
2018-09-17T03:06:25.820Z,15.40
2018-09-17T03:08:54.501Z,15.40
2018-09-17T03:11:24.294Z,15.30
2018-09-17T03:13:52.714Z,15.30
2018-09-17T03:16:22.379Z,15.20
2018-09-17T03:18:54.614Z,15.20
2018-09-17T03:21:23.596Z,15.30
2018-09-17T03:23:52.132Z,15.20
2018-09-17T03:26:21.190Z,15.20
2018-09-17T03:28:49.711Z,15.20
2018-09-17T03:31:18.414Z,15.20
2018-09-17T03:33:46.923Z,15.20
2018-09-17T03:36:15.371Z,15.20
2018-09-17T03:38:46.718Z,15.10
2018-09-17T03:41:16.510Z,15.10
2018-09-17T03:43:48.337Z,15.10
2018-09-17T03:46:18.601Z,15.10
2018-09-17T03:48:47.546Z,15.10
2018-09-17T03:51:16.297Z,15.10
2018-09-17T03:53:44.755Z,15.10
2018-09-17T03:56:13.154Z,15.10
2018-09-17T03:58:41.538Z,15.00
2018-09-17T04:01:10.015Z,15.00
2018-09-17T04:03:38.353Z,15.10
2018-09-17T04:06:06.851Z,15.00
2018-09-17T04:08:35.231Z,15.00
2018-09-17T04:11:03.603Z,15.00
2018-09-17T04:13:31.953Z,15.00
2018-09-17T04:16:00.668Z,15.00
2018-09-17T04:18:29.050Z,14.90
2018-09-17T04:20:57.436Z,14.90
2018-09-17T04:23:31.540Z,14.90
2018-09-17T04:26:00.036Z,14.90
2018-09-17T04:28:28.430Z,14.90
2018-09-17T04:30:57.705Z,14.90
2018-09-17T04:33:27.667Z,14.80
2018-09-17T04:35:56.237Z,14.80
2018-09-17T04:38:24.605Z,14.80
2018-09-17T04:40:53.663Z,14.80
2018-09-17T04:43:22.285Z,14.80
2018-09-17T04:45:50.985Z,14.80
2018-09-17T04:48:19.802Z,14.80
2018-09-17T04:50:48.232Z,14.80
2018-09-17T04:53:16.717Z,14.80
2018-09-17T04:55:45.117Z,14.70
2018-09-17T04:58:13.548Z,14.70
2018-09-17T05:00:42.386Z,14.70
2018-09-17T05:03:11.780Z,14.70
2018-09-17T05:05:40.256Z,14.70
2018-09-17T05:08:08.666Z,14.70
2018-09-17T05:10:37.179Z,14.70
2018-09-17T05:13:05.896Z,14.60
2018-09-17T05:15:34.293Z,14.60
2018-09-17T05:18:02.733Z,14.60
2018-09-17T05:20:31.348Z,14.60
2018-09-17T05:22:59.722Z,14.50
2018-09-17T05:25:28.299Z,14.60
2018-09-17T05:27:56.843Z,14.60
2018-09-17T05:30:25.372Z,14.50
2018-09-17T05:32:53.804Z,14.50
2018-09-17T05:35:22.214Z,14.60
2018-09-17T05:37:50.623Z,14.60
2018-09-17T05:40:19.407Z,14.60
2018-09-17T05:42:48.391Z,14.60
2018-09-17T05:45:16.896Z,14.70
2018-09-17T05:47:45.898Z,14.70
2018-09-17T05:50:14.301Z,14.60
2018-09-17T05:52:42.800Z,14.60
2018-09-17T05:55:11.175Z,14.70
2018-09-17T05:57:39.657Z,14.70
2018-09-17T06:00:23.233Z,14.70
2018-09-17T06:02:51.598Z,14.60
2018-09-17T06:05:20.465Z,14.60
2018-09-17T06:07:48.882Z,14.70
2018-09-17T06:10:17.547Z,14.70
2018-09-17T06:12:48.151Z,14.80
2018-09-17T06:15:17.089Z,14.80
2018-09-17T06:17:45.426Z,14.90
2018-09-17T06:20:13.888Z,14.90
2018-09-17T06:22:42.361Z,14.90
2018-09-17T06:25:10.768Z,14.80
2018-09-17T06:27:39.368Z,14.90
2018-09-17T06:30:07.853Z,14.90
2018-09-17T06:32:37.139Z,14.90
2018-09-17T06:35:05.588Z,15.00
2018-09-17T06:37:34.044Z,15.10
2018-09-17T06:40:02.600Z,15.10
2018-09-17T06:42:30.983Z,15.20
2018-09-17T06:44:59.556Z,15.20
2018-09-17T06:47:28.083Z,15.20
2018-09-17T06:49:56.468Z,15.20
2018-09-17T06:52:25.584Z,15.30
2018-09-17T06:54:54.030Z,15.30
2018-09-17T06:57:22.524Z,15.30
2018-09-17T06:59:51.612Z,15.40
2018-09-17T07:02:20.318Z,15.40
2018-09-17T07:04:48.710Z,15.50
2018-09-17T07:07:17.193Z,15.50
2018-09-17T07:09:45.576Z,15.60
2018-09-17T07:12:13.999Z,15.60
2018-09-17T07:14:42.470Z,15.70
2018-09-17T07:17:11.181Z,15.80
2018-09-17T07:19:39.707Z,15.90
2018-09-17T07:22:07.963Z,16.00
2018-09-17T07:24:36.507Z,16.10
2018-09-17T07:27:05.018Z,16.20
2018-09-17T07:29:33.638Z,16.30
2018-09-17T07:32:02.056Z,16.40
2018-09-17T07:34:30.502Z,16.40
2018-09-17T07:36:58.971Z,16.50
2018-09-17T07:39:27.525Z,16.60
2018-09-17T07:41:55.932Z,16.70
2018-09-17T07:44:24.334Z,16.70
2018-09-17T07:46:52.711Z,16.80
2018-09-17T07:49:21.133Z,17.00
2018-09-17T07:51:49.627Z,17.00
2018-09-17T07:54:18.041Z,17.20
2018-09-17T07:58:00.937Z,17.20
2018-09-17T08:00:31.552Z,17.40
2018-09-17T08:03:00.117Z,17.50
2018-09-17T08:05:28.557Z,17.60
2018-09-17T08:07:56.972Z,17.80
2018-09-17T08:10:26.346Z,17.90
2018-09-17T08:12:54.738Z,18.00
2018-09-17T08:15:23.182Z,18.20
2018-09-17T08:17:52.768Z,18.30
2018-09-17T08:20:21.211Z,18.40
2018-09-17T08:22:49.704Z,18.50
2018-09-17T08:25:18.109Z,18.60
2018-09-17T08:27:46.562Z,18.70
2018-09-17T08:30:15.040Z,18.80
2018-09-17T08:32:43.465Z,18.80
2018-09-17T08:35:12.660Z,18.90
2018-09-17T08:37:41.042Z,19.00
2018-09-17T08:40:09.416Z,19.10
2018-09-17T08:42:37.799Z,19.20
2018-09-17T08:45:06.315Z,19.20
2018-09-17T08:47:34.782Z,19.30
2018-09-17T08:50:03.216Z,19.40
2018-09-17T08:52:32.219Z,19.40
2018-09-17T08:55:06.051Z,19.50
2018-09-17T08:57:44.619Z,19.60
2018-09-17T09:00:18.481Z,19.70
2018-09-17T09:02:51.567Z,19.80
2018-09-17T09:05:25.546Z,19.90
2018-09-17T09:07:55.155Z,20.10
2018-09-17T09:10:28.958Z,20.20
2018-09-17T09:13:03.020Z,20.30
2018-09-17T09:15:37.915Z,20.40
2018-09-17T09:18:07.531Z,20.50
2018-09-17T09:20:36.595Z,20.60
2018-09-17T09:23:05.052Z,20.70
2018-09-17T09:25:33.453Z,20.80
2018-09-17T09:28:01.839Z,20.90
2018-09-17T09:30:30.312Z,21.00
2018-09-17T09:32:58.768Z,21.10
2018-09-17T09:35:27.243Z,21.20
2018-09-17T09:37:55.646Z,21.30
2018-09-17T09:40:24.233Z,21.40
2018-09-17T09:42:52.625Z,21.40
2018-09-17T09:45:21.079Z,21.50
2018-09-17T09:47:50.656Z,21.60
2018-09-17T09:50:19.202Z,21.70
2018-09-17T09:52:48.318Z,21.80
2018-09-17T09:55:16.730Z,21.90
2018-09-17T09:57:45.173Z,22.00
2018-09-17T10:01:20.769Z,22.10
2018-09-17T10:03:54.861Z,22.10
2018-09-17T10:06:23.324Z,22.10
2018-09-17T10:08:56.958Z,22.10
2018-09-17T10:12:33.556Z,22.20
2018-09-17T10:15:07.378Z,22.20
2018-09-17T10:17:41.161Z,22.20
2018-09-17T10:20:09.707Z,22.20
2018-09-17T10:22:38.118Z,22.30
2018-09-17T10:25:06.566Z,22.40
2018-09-17T10:27:34.931Z,22.50
2018-09-17T10:30:04.206Z,22.60
2018-09-17T10:32:32.513Z,22.70
2018-09-17T10:35:00.936Z,22.80
2018-09-17T10:37:29.327Z,22.90
2018-09-17T10:39:57.763Z,23.10
2018-09-17T10:42:26.441Z,23.20
2018-09-17T10:44:55.027Z,23.30
2018-09-17T10:47:23.517Z,23.50
2018-09-17T10:49:51.911Z,23.60
2018-09-17T10:52:20.284Z,23.60
2018-09-17T10:54:48.673Z,23.70
2018-09-17T10:57:17.096Z,23.80
2018-09-17T10:59:45.485Z,23.90
2018-09-17T11:02:13.884Z,24.10
2018-09-17T11:04:42.326Z,24.30
2018-09-17T11:07:10.775Z,24.50
2018-09-17T11:09:39.436Z,24.70
2018-09-17T11:12:07.781Z,24.90
2018-09-17T11:14:36.296Z,25.20
2018-09-17T11:17:04.880Z,25.30
2018-09-17T11:19:33.358Z,25.50
2018-09-17T11:22:01.997Z,25.60
2018-09-17T11:24:30.421Z,25.70
2018-09-17T11:26:58.814Z,25.80
2018-09-17T11:29:27.230Z,25.90
2018-09-17T11:31:55.695Z,25.90
2018-09-17T11:34:24.396Z,26.00
2018-09-17T11:36:52.903Z,26.10
2018-09-17T11:39:21.410Z,26.20
2018-09-17T11:41:49.913Z,26.30
2018-09-17T11:44:18.401Z,26.40
2018-09-17T11:46:46.777Z,26.50
2018-09-17T11:49:15.333Z,26.70
2018-09-17T11:51:44.015Z,26.80
2018-09-17T11:54:12.499Z,26.90
2018-09-17T11:56:40.886Z,26.80
2018-09-17T11:59:09.298Z,26.90
2018-09-17T12:01:43.143Z,26.80
2018-09-17T12:04:13.974Z,26.80
2018-09-17T12:06:49.131Z,26.80
2018-09-17T12:09:18.065Z,26.70
2018-09-17T12:11:47.044Z,26.70
2018-09-17T12:14:16.040Z,26.70
2018-09-17T12:16:45.912Z,26.80
2018-09-17T12:19:15.184Z,26.80
2018-09-17T12:21:44.346Z,26.90
2018-09-17T12:24:13.582Z,27.10
2018-09-17T12:26:42.097Z,27.20
2018-09-17T12:29:23.245Z,27.40
2018-09-17T12:31:51.893Z,27.40
2018-09-17T12:34:20.645Z,27.50
2018-09-17T12:36:49.113Z,27.70
2018-09-17T12:39:17.535Z,27.80
2018-09-17T12:41:45.982Z,27.90
2018-09-17T12:44:14.383Z,28.00
2018-09-17T12:46:42.886Z,28.10
2018-09-17T12:49:11.345Z,28.20
2018-09-17T12:51:39.778Z,28.20
2018-09-17T12:54:08.409Z,28.30
2018-09-17T12:56:37.092Z,28.30
2018-09-17T12:59:05.698Z,28.40
2018-09-17T13:01:34.389Z,28.50
2018-09-17T13:04:02.971Z,28.60
2018-09-17T13:06:31.310Z,28.70
2018-09-17T13:08:59.843Z,28.90
2018-09-17T13:11:28.291Z,29.00
2018-09-17T13:13:56.790Z,29.00
2018-09-17T13:16:25.455Z,29.10
2018-09-17T13:18:53.883Z,29.30
2018-09-17T13:21:22.328Z,29.50
2018-09-17T13:23:50.824Z,29.70
2018-09-17T13:26:19.393Z,29.80
2018-09-17T13:28:47.884Z,29.90
2018-09-17T13:31:16.328Z,30.00
2018-09-17T13:33:44.803Z,30.10
2018-09-17T13:36:14.316Z,30.30
2018-09-17T13:38:42.676Z,30.30
2018-09-17T13:41:11.120Z,30.20
2018-09-17T13:43:39.566Z,30.10
2018-09-17T13:46:08.015Z,30.00
2018-09-17T13:48:36.538Z,30.00
2018-09-17T13:51:05.428Z,29.90
2018-09-17T13:53:33.956Z,29.80
2018-09-17T13:56:02.619Z,29.90
2018-09-17T13:58:31.129Z,30.10
2018-09-17T14:00:59.751Z,30.20
2018-09-17T14:03:28.816Z,30.20
2018-09-17T14:05:57.931Z,30.40
2018-09-17T14:08:26.798Z,30.50
2018-09-17T14:10:55.794Z,30.60
2018-09-17T14:13:26.028Z,30.80
2018-09-17T14:16:00.744Z,30.90
2018-09-17T14:18:29.983Z,31.00
2018-09-17T14:20:58.479Z,31.00
2018-09-17T14:23:27.046Z,30.90
2018-09-17T14:25:55.570Z,30.90
2018-09-17T14:28:25.935Z,31.00
2018-09-17T14:30:54.536Z,31.10
2018-09-17T14:33:40.378Z,31.20
2018-09-17T14:36:08.783Z,31.40
2018-09-17T14:38:37.314Z,31.40
2018-09-17T14:41:05.730Z,31.50
2018-09-17T14:43:34.286Z,31.60
2018-09-17T14:46:02.669Z,31.60
2018-09-17T14:48:31.081Z,31.70
2018-09-17T14:50:59.641Z,31.70
2018-09-17T14:53:28.219Z,31.80
2018-09-17T14:55:56.872Z,31.80
2018-09-17T14:58:25.413Z,31.80
2018-09-17T15:00:53.853Z,31.70
2018-09-17T15:03:23.565Z,31.70
2018-09-17T15:05:52.250Z,31.60
2018-09-17T15:08:20.897Z,31.40
2018-09-17T15:10:49.626Z,31.30
2018-09-17T15:13:18.450Z,31.30
2018-09-17T15:15:52.764Z,31.40
2018-09-17T15:18:22.113Z,31.30
2018-09-17T15:20:51.995Z,31.30
2018-09-17T15:23:21.714Z,31.20
2018-09-17T15:25:50.593Z,31.20
2018-09-17T15:28:19.590Z,31.10
2018-09-17T15:30:49.081Z,31.10
2018-09-17T15:33:18.324Z,30.90
2018-09-17T15:35:48.042Z,30.80
2018-09-17T15:38:18.295Z,30.60
2018-09-17T15:40:49.281Z,30.50
2018-09-17T15:43:18.728Z,30.30
2018-09-17T15:45:48.459Z,30.20
2018-09-17T15:48:17.888Z,30.00
2018-09-17T15:50:47.252Z,29.90
2018-09-17T15:53:16.885Z,29.80
2018-09-17T15:55:46.182Z,29.60
2018-09-17T15:58:15.415Z,29.50
2018-09-17T16:00:45.207Z,29.40
2018-09-17T16:03:14.403Z,29.40
2018-09-17T16:05:43.933Z,29.30
2018-09-17T16:08:12.460Z,29.30
2018-09-17T16:10:41.670Z,29.20
2018-09-17T16:13:11.499Z,29.20
2018-09-17T16:15:40.359Z,29.20
2018-09-17T16:18:09.272Z,29.10
2018-09-17T16:20:38.452Z,29.10
2018-09-17T16:23:07.202Z,29.10
2018-09-17T16:25:35.570Z,29.00
2018-09-17T16:28:04.430Z,29.00
2018-09-17T16:30:32.959Z,28.90
2018-09-17T16:33:01.694Z,28.90
2018-09-17T16:35:30.737Z,28.80
2018-09-17T16:37:59.301Z,28.70
2018-09-17T16:40:28.590Z,28.70
2018-09-17T16:42:57.530Z,28.60
2018-09-17T16:45:26.834Z,28.40
2018-09-17T16:47:56.217Z,28.40
2018-09-17T16:50:25.531Z,28.20
2018-09-17T16:52:55.204Z,28.10
2018-09-17T16:55:24.545Z,28.00
2018-09-17T16:57:53.351Z,27.90
2018-09-17T17:00:21.997Z,27.80
2018-09-17T17:02:51.519Z,27.70
2018-09-17T17:05:20.138Z,27.50
2018-09-17T17:07:50.029Z,27.40
2018-09-17T17:10:19.532Z,27.30
2018-09-17T17:12:48.954Z,27.20
2018-09-17T17:15:18.502Z,27.10
2018-09-17T17:17:48.420Z,27.00
2018-09-17T17:20:18.541Z,26.90
2018-09-17T17:22:47.860Z,26.90
2018-09-17T17:25:18.136Z,26.80
2018-09-17T17:27:48.201Z,26.70
2018-09-17T17:30:18.901Z,26.50
2018-09-17T17:32:49.102Z,26.30
2018-09-17T17:35:18.889Z,26.20
2018-09-17T17:37:49.085Z,26.10
2018-09-17T17:40:18.959Z,26.00
2018-09-17T17:42:47.902Z,25.90
2018-09-17T17:45:16.782Z,25.80
2018-09-17T17:47:46.177Z,25.70
2018-09-17T17:50:16.358Z,25.70
2018-09-17T17:52:46.200Z,25.60
2018-09-17T17:55:15.872Z,25.50
2018-09-17T17:57:44.569Z,25.30
2018-09-17T18:00:14.735Z,25.20
2018-09-17T18:02:43.242Z,25.10
2018-09-17T18:05:11.711Z,24.90
2018-09-17T18:07:40.133Z,24.80
2018-09-17T18:10:09.678Z,24.80
2018-09-17T18:12:39.790Z,24.70
2018-09-17T18:15:08.655Z,24.60
2018-09-17T18:17:37.805Z,24.40
2018-09-17T18:20:08.213Z,24.30
2018-09-17T18:22:37.795Z,24.20
2018-09-17T18:25:07.926Z,24.10
2018-09-17T18:27:36.962Z,24.00
2018-09-17T18:30:06.969Z,23.80
2018-09-17T18:32:35.887Z,23.70
2018-09-17T18:35:05.833Z,23.70
2018-09-17T18:37:35.368Z,23.70
2018-09-17T18:40:05.207Z,23.70
2018-09-17T18:42:34.921Z,23.60
2018-09-17T18:45:03.739Z,23.50
2018-09-17T18:47:33.109Z,23.40
2018-09-17T18:52:50.245Z,23.20
2018-09-17T18:55:19.643Z,23.10
2018-09-17T18:57:48.903Z,23.00
2018-09-17T19:00:18.637Z,23.00
2018-09-17T19:02:48.192Z,22.90
2018-09-17T19:05:17.676Z,22.80
2018-09-17T19:07:47.033Z,22.70
2018-09-17T19:10:16.427Z,22.70
2018-09-17T19:12:45.403Z,22.60
2018-09-17T19:15:19.423Z,22.60
2018-09-17T19:17:48.003Z,22.50
2018-09-17T19:20:17.152Z,22.40
2018-09-17T19:22:51.023Z,22.40
2018-09-17T19:25:19.857Z,22.30
2018-09-17T19:27:53.854Z,22.30
2018-09-17T19:30:22.272Z,22.20
2018-09-17T19:32:50.713Z,22.10
2018-09-17T19:35:19.632Z,22.20
2018-09-17T19:37:53.576Z,22.20
2018-09-17T19:40:22.616Z,22.20
2018-09-17T19:42:51.484Z,22.20
2018-09-17T19:45:25.562Z,22.10
2018-09-17T19:47:54.145Z,22.10
2018-09-17T19:50:28.363Z,22.10
2018-09-17T19:52:57.728Z,21.90
2018-09-17T19:55:26.478Z,21.80
2018-09-17T19:58:00.525Z,21.70
2018-09-17T20:00:29.741Z,21.70
2018-09-17T20:02:58.695Z,21.50
2018-09-17T20:05:33.538Z,21.50
2018-09-17T20:08:02.353Z,21.50
2018-09-17T20:10:31.354Z,21.50
2018-09-17T20:13:00.134Z,21.50
2018-09-17T20:15:29.222Z,21.50
2018-09-17T20:17:58.023Z,21.40
2018-09-17T20:20:28.179Z,21.40
2018-09-17T20:22:57.533Z,21.40
2018-09-17T20:25:26.528Z,21.40
2018-09-17T20:27:55.337Z,21.40
2018-09-17T20:30:24.322Z,21.40
2018-09-17T20:32:53.174Z,21.40
2018-09-17T20:35:22.892Z,21.40
2018-09-17T20:37:52.050Z,21.30
2018-09-17T20:40:21.433Z,21.20
2018-09-17T20:42:51.183Z,21.10
2018-09-17T20:45:19.979Z,21.10
2018-09-17T20:47:48.859Z,21.00
2018-09-17T20:50:18.038Z,20.90
2018-09-17T20:52:47.132Z,20.90
2018-09-17T20:55:16.187Z,20.80
2018-09-17T20:57:44.836Z,20.80
2018-09-17T21:00:14.405Z,20.70
2018-09-17T21:02:43.882Z,20.60
2018-09-17T21:05:13.112Z,20.60
2018-09-17T21:07:42.160Z,20.50
2018-09-17T21:10:10.772Z,20.50
2018-09-17T21:12:40.265Z,20.40
2018-09-17T21:15:09.236Z,20.40
2018-09-17T21:17:38.671Z,20.40
2018-09-17T21:20:07.683Z,20.30
2018-09-17T21:22:36.728Z,20.20
2018-09-17T21:25:05.838Z,20.20
2018-09-17T21:27:35.454Z,20.10
2018-09-17T21:30:04.856Z,20.10
2018-09-17T21:32:34.274Z,20.00
2018-09-17T21:35:03.204Z,20.10
2018-09-17T21:37:32.275Z,20.00
2018-09-17T21:40:00.986Z,20.00
2018-09-17T21:42:29.659Z,19.90
2018-09-17T21:44:58.511Z,19.90
2018-09-17T21:47:27.194Z,19.90
2018-09-17T21:49:56.007Z,19.90
2018-09-17T21:52:24.495Z,19.90
2018-09-17T21:54:53.246Z,19.90
2018-09-17T21:57:21.828Z,19.90
2018-09-17T21:59:50.444Z,19.80
2018-09-17T22:02:19.387Z,19.80
2018-09-17T22:04:48.273Z,19.80
2018-09-17T22:07:16.747Z,19.70
2018-09-17T22:09:45.328Z,19.70
2018-09-17T22:12:13.781Z,19.60
2018-09-17T22:14:42.838Z,19.50
2018-09-17T22:17:11.196Z,19.50
2018-09-17T22:19:39.823Z,19.40
2018-09-17T22:22:08.266Z,19.40
2018-09-17T22:24:36.853Z,19.40
2018-09-17T22:27:05.530Z,19.40
2018-09-17T22:29:34.149Z,19.30
2018-09-17T22:32:03.696Z,19.30
2018-09-17T22:34:32.110Z,19.30
2018-09-17T22:37:00.532Z,19.20
2018-09-17T22:39:29.064Z,19.20
2018-09-17T22:41:57.725Z,19.20
2018-09-17T22:44:26.184Z,19.20
2018-09-17T22:46:54.742Z,19.10
2018-09-17T22:49:23.153Z,19.10
2018-09-17T22:51:51.936Z,19.10
2018-09-17T22:54:20.541Z,19.10
2018-09-17T22:56:49.021Z,19.10
2018-09-17T22:59:18.603Z,19.00
2018-09-17T23:01:48.019Z,19.00
2018-09-17T23:04:17.249Z,19.00
2018-09-17T23:06:46.157Z,19.00
2018-09-17T23:09:15.556Z,18.90
2018-09-17T23:11:45.307Z,18.90
2018-09-17T23:14:14.461Z,19.00
2018-09-17T23:16:43.393Z,18.90
2018-09-17T23:19:12.452Z,18.90
2018-09-17T23:21:41.302Z,18.90
2018-09-17T23:24:10.391Z,18.80
2018-09-17T23:26:39.634Z,18.80
2018-09-17T23:29:08.617Z,18.80
2018-09-17T23:31:37.309Z,18.80
2018-09-17T23:34:06.343Z,18.80
2018-09-17T23:36:35.209Z,18.80
2018-09-17T23:39:06.300Z,18.70
2018-09-17T23:41:35.119Z,18.70
2018-09-17T23:44:04.709Z,18.70
2018-09-17T23:46:34.967Z,18.70
2018-09-17T23:49:04.715Z,18.70
2018-09-17T23:51:34.874Z,18.80
2018-09-17T23:54:04.610Z,18.70
2018-09-17T23:56:33.854Z,18.70
2018-09-17T23:59:02.447Z,18.70
